Bell Buckle, Tennessee
Current Conditions -  °F | °C
As of 11:15 PM on Friday 28 Nov 2014 (Local Time) from KSYI Reporting Station
Clear Clear  
Wind Chill: 33°   Ceiling: Unl
Heat Index: 39°   Visibility: 10mi
Dew Point: 21°   Wind: 9mph
Humidity: 49%   Direction: 170°S
Pressure: 30.17"   Gusts: NA
Location:  35.59°N, 86.35°W
Report Text: KSYI 290515Z AUTO 17008KT 10SM CLR 04/M06 A3017 RMK
Loading
Personal Weather Stations






























Interactive Weather Map New forecast layout! Learn more

10-Day Weather Forecast

Advertisements
Track Severe Weather on mobile